createdAt,value
2023-04-14T00:02:04.229Z,9.25
2023-04-14T00:04:33.591Z,9.21
2023-04-14T00:07:02.075Z,9.19
2023-04-14T00:09:30.220Z,9.16
2023-04-14T00:11:58.241Z,9.14
2023-04-14T00:14:26.264Z,9.12
2023-04-14T00:16:54.450Z,9.10
2023-04-14T00:19:22.715Z,9.06
2023-04-14T00:21:50.981Z,9.05
2023-04-14T00:24:20.390Z,9.04
2023-04-14T00:26:48.310Z,9.03
2023-04-14T00:29:16.170Z,9.03
2023-04-14T00:31:44.165Z,9.06
2023-04-14T00:34:12.230Z,9.09
2023-04-14T00:36:40.239Z,9.14
2023-04-14T00:39:08.361Z,9.17
2023-04-14T00:41:36.425Z,9.18
2023-04-14T00:44:05.039Z,9.19
2023-04-14T00:46:32.954Z,9.18
2023-04-14T00:49:01.673Z,9.15
2023-04-14T00:51:29.732Z,9.12
2023-04-14T00:56:31.522Z,9.08
2023-04-14T00:59:02.678Z,9.07
2023-04-14T01:01:31.094Z,9.03
2023-04-14T01:03:59.730Z,9.00
2023-04-14T01:06:30.157Z,8.97
2023-04-14T01:08:58.248Z,8.96
2023-04-14T01:12:07.540Z,8.96
2023-04-14T01:14:42.513Z,8.91
2023-04-14T01:17:21.452Z,8.89
2023-04-14T01:20:19.356Z,8.89
2023-04-14T01:22:49.491Z,8.89
2023-04-14T01:25:41.211Z,8.90
2023-04-14T01:28:18.519Z,8.90
2023-04-14T01:30:57.475Z,8.90
2023-04-14T01:33:26.675Z,8.90
2023-04-14T01:35:56.419Z,8.88
2023-04-14T01:38:27.449Z,8.90
2023-04-14T01:40:57.892Z,8.92
2023-04-14T01:43:28.219Z,8.92
2023-04-14T01:45:59.006Z,8.94
2023-04-14T01:48:27.167Z,8.94
2023-04-14T01:50:55.042Z,8.90
2023-04-14T01:53:24.386Z,8.86
2023-04-14T01:55:53.017Z,8.82
2023-04-14T01:58:23.007Z,8.78
2023-04-14T02:00:51.703Z,8.75
2023-04-14T02:03:21.195Z,8.73
2023-04-14T02:05:51.582Z,8.73
2023-04-14T02:08:20.387Z,8.71
2023-04-14T02:10:49.327Z,8.67
2023-04-14T02:13:18.339Z,8.65
2023-04-14T02:15:48.221Z,8.63
2023-04-14T02:18:16.158Z,8.60
2023-04-14T02:20:48.252Z,8.57
2023-04-14T02:23:28.402Z,8.55
2023-04-14T02:26:00.974Z,8.55
2023-04-14T02:28:33.619Z,8.53
2023-04-14T02:31:05.751Z,8.50
2023-04-14T02:33:35.420Z,8.50
2023-04-14T02:36:13.630Z,8.50
2023-04-14T02:38:52.225Z,8.52
2023-04-14T02:41:24.030Z,8.53
2023-04-14T02:44:10.904Z,8.52
2023-04-14T02:46:42.705Z,8.53
2023-04-14T02:49:12.948Z,8.55
2023-04-14T02:51:41.139Z,8.57
2023-04-14T02:54:09.478Z,8.60
2023-04-14T02:56:44.592Z,8.60
2023-04-14T02:59:13.184Z,8.59
2023-04-14T03:01:50.821Z,8.57
2023-04-14T03:04:18.996Z,8.57
2023-04-14T03:06:47.442Z,8.58
2023-04-14T03:09:16.058Z,8.60
2023-04-14T03:11:44.474Z,8.59
2023-04-14T03:14:13.378Z,8.58
2023-04-14T03:16:42.224Z,8.58
2023-04-14T03:19:10.537Z,8.55
2023-04-14T03:21:42.367Z,8.52
2023-04-14T03:24:12.375Z,8.48
2023-04-14T03:26:42.144Z,8.49
2023-04-14T03:29:10.781Z,8.49
2023-04-14T03:31:38.850Z,8.50
2023-04-14T03:34:07.368Z,8.50
2023-04-14T03:36:37.704Z,8.48
2023-04-14T03:39:06.609Z,8.45
2023-04-14T03:41:38.327Z,8.40
2023-04-14T03:44:06.826Z,8.37
2023-04-14T03:46:37.004Z,8.37
2023-04-14T03:49:07.525Z,8.35
2023-04-14T03:51:36.266Z,8.34
2023-04-14T03:54:04.228Z,8.36
2023-04-14T03:56:41.239Z,8.39
2023-04-14T03:59:12.651Z,8.41
2023-04-14T04:01:41.568Z,8.42
2023-04-14T04:04:09.631Z,8.43
2023-04-14T04:06:37.810Z,8.45
2023-04-14T04:09:06.040Z,8.50
2023-04-14T04:11:34.098Z,8.53
2023-04-14T04:14:04.918Z,8.58
2023-04-14T04:16:35.802Z,8.61
2023-04-14T04:19:07.207Z,8.63
2023-04-14T04:21:36.201Z,8.66
2023-04-14T04:24:04.698Z,8.68
2023-04-14T04:26:34.581Z,8.67
2023-04-14T04:29:04.679Z,8.63
2023-04-14T04:31:33.601Z,8.64
2023-04-14T04:34:03.430Z,8.66
2023-04-14T04:36:38.778Z,8.67
2023-04-14T04:39:07.067Z,8.69
2023-04-14T04:41:37.790Z,8.71
2023-04-14T04:44:06.323Z,8.76
2023-04-14T04:46:55.642Z,8.77
2023-04-14T04:49:26.597Z,8.78
2023-04-14T04:51:56.588Z,8.79
2023-04-14T04:54:24.727Z,8.77
2023-04-14T04:56:52.904Z,8.74
2023-04-14T04:59:20.700Z,8.72
2023-04-14T05:01:51.008Z,8.73
2023-04-14T05:04:19.168Z,8.76
2023-04-14T05:06:47.347Z,8.79
2023-04-14T05:09:20.472Z,8.78
2023-04-14T05:11:48.801Z,8.76
2023-04-14T05:14:16.689Z,8.75
2023-04-14T05:16:44.649Z,8.73
2023-04-14T05:19:13.629Z,8.69
2023-04-14T05:21:42.375Z,8.68
2023-04-14T05:24:10.312Z,8.68
2023-04-14T05:29:11.712Z,8.62
2023-04-14T05:31:39.751Z,8.63
2023-04-14T05:34:08.040Z,8.65
2023-04-14T05:36:36.731Z,8.68
2023-04-14T05:39:04.690Z,8.71
2023-04-14T05:41:33.766Z,8.70
2023-04-14T05:44:04.636Z,8.72
2023-04-14T05:46:33.039Z,8.72
2023-04-14T05:49:01.959Z,8.73
2023-04-14T05:51:31.451Z,8.73
2023-04-14T05:54:01.046Z,8.64
2023-04-14T05:56:29.456Z,8.59
2023-04-14T05:58:57.428Z,8.60
2023-04-14T06:01:25.516Z,8.61
2023-04-14T06:03:55.123Z,8.58
2023-04-14T06:06:23.397Z,8.62
2023-04-14T06:08:53.966Z,8.66
2023-04-14T06:11:23.279Z,8.68
2023-04-14T06:13:51.168Z,8.68
2023-04-14T06:16:19.134Z,8.68
2023-04-14T06:18:50.395Z,8.64
2023-04-14T06:21:18.535Z,8.61
2023-04-14T06:23:46.581Z,8.59
2023-04-14T06:26:16.492Z,8.62
2023-04-14T06:28:45.493Z,8.65
2023-04-14T06:31:14.375Z,8.66
2023-04-14T06:33:42.352Z,8.69
2023-04-14T06:36:10.406Z,8.76
2023-04-14T06:38:38.905Z,8.81
2023-04-14T06:41:07.306Z,8.82
2023-04-14T06:43:36.886Z,8.81
2023-04-14T06:46:05.131Z,8.82
2023-04-14T06:48:33.095Z,8.82
2023-04-14T06:51:01.117Z,8.83
2023-04-14T06:53:29.187Z,8.81
2023-04-14T06:56:00.544Z,8.81
2023-04-14T06:58:31.063Z,8.78
2023-04-14T07:01:01.032Z,8.77
2023-04-14T07:03:30.843Z,8.79
2023-04-14T07:06:05.242Z,8.82
2023-04-14T07:08:34.929Z,8.86
2023-04-14T07:11:03.581Z,8.87
2023-04-14T07:13:32.185Z,8.86
2023-04-14T07:16:00.869Z,8.87
2023-04-14T07:18:30.216Z,8.89
2023-04-14T07:20:59.229Z,8.89
2023-04-14T07:23:27.677Z,8.90
2023-04-14T07:25:57.392Z,8.91
2023-04-14T07:28:26.806Z,8.89
2023-04-14T07:30:55.436Z,8.83
2023-04-14T07:33:24.197Z,8.81
2023-04-14T07:36:03.434Z,8.80
2023-04-14T07:38:33.821Z,8.79
2023-04-14T07:41:03.830Z,8.80
2023-04-14T07:43:35.792Z,8.82
2023-04-14T07:46:05.665Z,8.87
2023-04-14T07:48:34.910Z,8.91
2023-04-14T07:51:09.207Z,8.98
2023-04-14T07:53:42.483Z,9.04
2023-04-14T07:56:11.349Z,9.04
2023-04-14T07:58:40.323Z,9.05
2023-04-14T08:01:08.375Z,9.05
2023-04-14T08:03:40.775Z,9.09
2023-04-14T08:06:11.510Z,9.11
2023-04-14T08:08:40.446Z,9.09
2023-04-14T08:11:08.575Z,9.11
2023-04-14T08:13:36.640Z,9.13
2023-04-14T08:16:07.861Z,9.14
2023-04-14T08:18:36.784Z,9.13
2023-04-14T08:21:05.692Z,9.16
2023-04-14T08:23:34.341Z,9.18
2023-04-14T08:26:04.075Z,9.20
2023-04-14T08:28:32.132Z,9.19
2023-04-14T08:31:00.153Z,9.22
2023-04-14T08:33:30.328Z,9.24
2023-04-14T08:35:59.747Z,9.24
2023-04-14T08:38:30.484Z,9.22
2023-04-14T08:40:58.436Z,9.24
2023-04-14T08:43:26.657Z,9.25
2023-04-14T08:45:55.609Z,9.25
2023-04-14T08:48:25.546Z,9.24
2023-04-14T08:51:01.369Z,9.26
2023-04-14T08:53:32.056Z,9.31
2023-04-14T08:56:02.338Z,9.37
2023-04-14T08:58:31.394Z,9.42
2023-04-14T09:01:01.773Z,9.49
2023-04-14T09:03:31.682Z,9.55
2023-04-14T09:05:59.888Z,9.59
2023-04-14T09:08:35.652Z,9.66
2023-04-14T09:11:04.252Z,9.71
2023-04-14T09:13:32.392Z,9.72
2023-04-14T09:16:02.000Z,9.72
2023-04-14T09:18:34.591Z,9.70
2023-04-14T09:21:49.667Z,9.67
2023-04-14T09:23:52.561Z,9.60
2023-04-14T09:26:20.418Z,9.56
2023-04-14T09:28:48.305Z,9.54
2023-04-14T09:31:18.016Z,9.54
2023-04-14T09:33:48.828Z,9.56
2023-04-14T09:36:20.452Z,9.59
2023-04-14T09:38:49.965Z,9.64
2023-04-14T09:41:19.973Z,9.67
2023-04-14T09:43:48.492Z,9.69
2023-04-14T09:46:17.912Z,9.73
2023-04-14T09:48:52.491Z,9.81
2023-04-14T09:51:24.257Z,9.91
2023-04-14T09:53:52.889Z,9.99
2023-04-14T09:56:28.457Z,10.07
2023-04-14T09:59:01.059Z,10.17
2023-04-14T10:01:32.155Z,10.20
2023-04-14T10:04:02.156Z,10.23
2023-04-14T10:06:32.286Z,10.25
2023-04-14T10:09:01.297Z,10.27
2023-04-14T10:11:30.774Z,10.29
2023-04-14T10:14:01.384Z,10.29
2023-04-14T10:16:29.957Z,10.30
2023-04-14T10:18:58.657Z,10.31
2023-04-14T10:21:28.138Z,10.33
2023-04-14T10:23:57.392Z,10.33
2023-04-14T10:26:27.077Z,10.31
2023-04-14T10:28:56.253Z,10.31
2023-04-14T10:31:39.203Z,10.32
2023-04-14T10:34:09.233Z,10.36
2023-04-14T10:36:37.360Z,10.38
2023-04-14T10:39:06.140Z,10.40
2023-04-14T10:41:47.955Z,10.42
2023-04-14T10:44:25.800Z,10.46
2023-04-14T10:46:54.304Z,10.48
2023-04-14T10:49:36.039Z,10.48
2023-04-14T10:52:17.002Z,10.45
2023-04-14T10:54:55.169Z,10.43
2023-04-14T10:57:24.268Z,10.44
2023-04-14T10:59:55.236Z,10.42
2023-04-14T11:02:30.338Z,10.39
2023-04-14T11:05:09.264Z,10.36
2023-04-14T11:07:40.606Z,10.31
2023-04-14T11:10:24.908Z,10.29
2023-04-14T11:13:11.446Z,10.29
2023-04-14T11:16:12.622Z,10.31
2023-04-14T11:18:45.272Z,10.32
2023-04-14T11:21:15.745Z,10.33
2023-04-14T11:23:47.914Z,10.32
2023-04-14T11:26:24.488Z,10.30
2023-04-14T11:28:56.792Z,10.31
2023-04-14T11:31:27.646Z,10.36
2023-04-14T11:33:56.597Z,10.42
2023-04-14T11:36:24.470Z,10.46
2023-04-14T11:38:52.539Z,10.48
2023-04-14T11:41:21.645Z,10.51
2023-04-14T11:43:50.802Z,10.52
2023-04-14T11:46:25.032Z,10.52
2023-04-14T11:48:57.203Z,10.52
2023-04-14T11:51:30.627Z,10.53
2023-04-14T11:54:00.215Z,10.56
2023-04-14T11:56:29.026Z,10.61
2023-04-14T11:59:04.826Z,10.63
2023-04-14T12:01:33.598Z,10.63
2023-04-14T12:04:03.611Z,10.64
2023-04-14T12:06:42.234Z,10.65
2023-04-14T12:09:11.391Z,10.62
2023-04-14T12:11:40.342Z,10.58
2023-04-14T12:14:08.393Z,10.58
2023-04-14T12:16:36.743Z,10.58
2023-04-14T12:19:07.746Z,10.60
2023-04-14T12:21:36.622Z,10.65
2023-04-14T12:24:04.753Z,10.68
2023-04-14T12:26:34.100Z,10.72
2023-04-14T12:29:02.434Z,10.75
2023-04-14T12:31:31.253Z,10.74
2023-04-14T12:34:34.815Z,10.73
2023-04-14T12:36:54.870Z,10.73
2023-04-14T12:39:27.545Z,10.74
2023-04-14T12:41:58.372Z,10.77
2023-04-14T12:44:26.448Z,10.79
2023-04-14T12:46:55.816Z,10.83
2023-04-14T12:49:50.165Z,10.84
2023-04-14T12:52:34.862Z,10.85
2023-04-14T12:55:04.877Z,10.87
2023-04-14T12:57:35.052Z,10.90
2023-04-14T13:00:04.961Z,10.93
2023-04-14T13:02:36.390Z,10.92
2023-04-14T13:05:05.196Z,10.93
2023-04-14T13:07:33.431Z,10.94
2023-04-14T13:10:02.164Z,10.94
2023-04-14T13:13:31.217Z,10.89
2023-04-14T13:16:14.638Z,10.88
2023-04-14T13:18:44.791Z,10.92
2023-04-14T13:21:14.292Z,10.93
2023-04-14T13:23:42.948Z,10.94
2023-04-14T13:26:11.981Z,10.92
2023-04-14T13:28:51.702Z,10.89
2023-04-14T13:31:20.834Z,10.85
2023-04-14T13:33:48.756Z,10.83
2023-04-14T13:36:16.704Z,10.81
2023-04-14T13:38:47.354Z,10.80
2023-04-14T13:41:15.740Z,10.81
2023-04-14T13:43:45.201Z,10.82
2023-04-14T13:46:13.216Z,10.79
2023-04-14T13:48:43.557Z,10.75
2023-04-14T13:51:12.166Z,10.75
2023-04-14T13:53:39.998Z,10.76
2023-04-14T13:56:08.653Z,10.76
2023-04-14T13:58:38.458Z,10.77
2023-04-14T14:01:12.776Z,10.77
2023-04-14T14:03:45.919Z,10.77
2023-04-14T14:06:14.545Z,10.78
2023-04-14T14:08:43.157Z,10.80
2023-04-14T14:11:16.117Z,10.83
2023-04-14T14:13:44.618Z,10.86
2023-04-14T14:16:13.221Z,10.88
2023-04-14T14:18:42.571Z,10.86
2023-04-14T14:21:11.409Z,10.86
2023-04-14T14:23:39.305Z,10.87
2023-04-14T14:26:11.455Z,10.88
2023-04-14T14:28:40.450Z,10.88
2023-04-14T14:31:08.319Z,10.87
2023-04-14T14:33:38.234Z,10.81
2023-04-14T14:36:06.298Z,10.71
2023-04-14T14:38:34.262Z,10.65
2023-04-14T14:41:02.683Z,10.63
2023-04-14T14:43:31.065Z,10.63
2023-04-14T14:45:59.134Z,10.59
2023-04-14T14:48:27.362Z,10.57
2023-04-14T14:50:55.897Z,10.57
2023-04-14T14:53:25.556Z,10.57
2023-04-14T14:55:53.373Z,10.58
2023-04-14T14:58:22.495Z,10.59
2023-04-14T15:00:54.382Z,10.61
2023-04-14T15:03:24.696Z,10.64
2023-04-14T15:05:53.316Z,10.66
2023-04-14T15:08:21.590Z,10.67
2023-04-14T15:10:51.933Z,10.67
2023-04-14T15:13:20.110Z,10.67
2023-04-14T15:15:48.171Z,10.68
2023-04-14T15:18:21.308Z,10.68
2023-04-14T15:20:56.150Z,10.70
2023-04-14T15:23:24.283Z,10.71
2023-04-14T15:25:52.165Z,10.71
2023-04-14T15:28:21.844Z,10.72
2023-04-14T15:30:49.985Z,10.72
2023-04-14T15:33:18.237Z,10.73
2023-04-14T15:35:47.909Z,10.74
2023-04-14T15:38:16.594Z,10.73
2023-04-14T15:40:44.553Z,10.73
2023-04-14T15:43:12.913Z,10.73
2023-04-14T15:45:40.879Z,10.72
2023-04-14T15:48:08.740Z,10.69
2023-04-14T15:50:44.505Z,10.64
2023-04-14T15:53:13.225Z,10.58
2023-04-14T15:55:41.203Z,10.52
2023-04-14T15:58:11.734Z,10.49
2023-04-14T16:00:39.756Z,10.46
2023-04-14T16:03:08.282Z,10.42
2023-04-14T16:05:41.644Z,10.35
2023-04-14T16:08:09.673Z,10.33
2023-04-14T16:10:41.085Z,10.32
2023-04-14T16:13:19.204Z,10.33
2023-04-14T16:15:47.105Z,10.32
2023-04-14T16:18:14.987Z,10.30
2023-04-14T16:20:43.526Z,10.28
2023-04-14T16:23:12.220Z,10.25
2023-04-14T16:25:40.293Z,10.20
2023-04-14T16:28:08.174Z,10.18
2023-04-14T16:30:38.395Z,10.18
2023-04-14T16:33:23.017Z,10.16
2023-04-14T16:35:51.083Z,10.14
2023-04-14T16:38:21.619Z,10.13
2023-04-14T16:40:56.468Z,10.12
2023-04-14T16:43:25.116Z,10.11
2023-04-14T16:45:56.536Z,10.10
2023-04-14T16:48:24.954Z,10.10
2023-04-14T16:50:54.512Z,10.07
2023-04-14T16:53:24.162Z,10.03
2023-04-14T16:55:52.210Z,10.01
2023-04-14T16:58:21.575Z,9.99
2023-04-14T17:00:50.116Z,9.98
2023-04-14T17:03:18.279Z,9.96
2023-04-14T17:05:46.403Z,9.96
2023-04-14T17:08:14.405Z,9.97
2023-04-14T17:10:43.000Z,9.98
2023-04-14T17:13:11.136Z,9.98
2023-04-14T17:15:44.192Z,9.98
2023-04-14T17:18:13.363Z,10.00
2023-04-14T17:20:41.492Z,10.02
2023-04-14T17:23:09.809Z,10.03
2023-04-14T17:25:38.167Z,10.04
2023-04-14T17:28:06.345Z,10.04
2023-04-14T17:30:37.366Z,10.04
2023-04-14T17:33:06.216Z,10.02
2023-04-14T17:35:34.848Z,9.99
2023-04-14T17:38:08.460Z,9.98
2023-04-14T17:40:37.425Z,9.97
2023-04-14T17:43:05.297Z,9.96
2023-04-14T17:45:35.209Z,9.96
2023-04-14T17:48:03.775Z,9.95
2023-04-14T17:50:31.877Z,9.94
2023-04-14T17:53:00.154Z,9.94
2023-04-14T17:55:28.468Z,9.93
2023-04-14T17:58:15.375Z,9.92
2023-04-14T18:00:44.189Z,9.91
2023-04-14T18:03:14.578Z,9.91
2023-04-14T18:05:43.839Z,9.89
2023-04-14T18:08:13.086Z,9.87
2023-04-14T18:10:45.968Z,9.87
2023-04-14T18:13:14.376Z,9.87
2023-04-14T18:15:42.278Z,9.86
2023-04-14T18:18:13.452Z,9.84
2023-04-14T18:20:48.952Z,9.81
2023-04-14T18:23:17.624Z,9.78
2023-04-14T18:28:18.964Z,9.78
2023-04-14T18:30:55.742Z,9.78
2023-04-14T18:33:25.069Z,9.78
2023-04-14T18:35:56.829Z,9.77
2023-04-14T18:38:25.122Z,9.77
2023-04-14T18:41:02.463Z,9.75
2023-04-14T18:43:32.671Z,9.74
2023-04-14T18:46:00.728Z,9.72
2023-04-14T18:48:34.216Z,9.70
2023-04-14T18:51:06.525Z,9.69
2023-04-14T18:53:34.679Z,9.67
2023-04-14T18:56:03.333Z,9.66
2023-04-14T18:58:31.804Z,9.65
2023-04-14T19:00:59.796Z,9.65
2023-04-14T19:03:28.901Z,9.64
2023-04-14T19:05:57.274Z,9.65
2023-04-14T19:08:25.700Z,9.65
2023-04-14T19:10:55.894Z,9.65
2023-04-14T19:13:24.398Z,9.65
2023-04-14T19:15:52.784Z,9.65
2023-04-14T19:18:21.122Z,9.63
2023-04-14T19:20:49.836Z,9.62
2023-04-14T19:23:19.450Z,9.62
2023-04-14T19:25:47.351Z,9.62
2023-04-14T19:28:16.837Z,9.60
2023-04-14T19:30:45.788Z,9.58
2023-04-14T19:33:15.491Z,9.57
2023-04-14T19:35:46.896Z,9.58
2023-04-14T19:38:15.613Z,9.58
2023-04-14T19:40:49.893Z,9.59
2023-04-14T19:43:18.712Z,9.60
2023-04-14T19:45:53.019Z,9.61
2023-04-14T19:48:24.067Z,9.60
2023-04-14T19:50:54.680Z,9.59
2023-04-14T19:53:23.194Z,9.60
2023-04-14T19:55:53.564Z,9.58
2023-04-14T19:58:21.907Z,9.54
2023-04-14T20:00:53.844Z,9.51
2023-04-14T20:03:24.471Z,9.48
2023-04-14T20:05:54.787Z,9.46
2023-04-14T20:08:27.331Z,9.45
2023-04-14T20:10:55.913Z,9.43
2023-04-14T20:13:24.481Z,9.42
2023-04-14T20:15:58.690Z,9.40
2023-04-14T20:18:28.730Z,9.38
2023-04-14T20:20:57.279Z,9.35
2023-04-14T20:23:26.003Z,9.33
2023-04-14T20:25:55.947Z,9.32
2023-04-14T20:28:26.574Z,9.30
2023-04-14T20:30:55.977Z,9.27
2023-04-14T20:33:31.096Z,9.25
2023-04-14T20:36:01.899Z,9.23
2023-04-14T20:38:30.115Z,9.24
2023-04-14T20:41:01.106Z,9.23
2023-04-14T20:43:34.241Z,9.22
2023-04-14T20:46:04.182Z,9.21
2023-04-14T20:48:35.272Z,9.17
2023-04-14T20:51:04.649Z,9.16
2023-04-14T20:53:32.694Z,9.17
2023-04-14T20:56:01.444Z,9.17
2023-04-14T20:58:29.866Z,9.17
2023-04-14T21:00:58.175Z,9.16
2023-04-14T21:03:28.684Z,9.15
2023-04-14T21:05:57.689Z,9.12
2023-04-14T21:08:27.392Z,9.11
2023-04-14T21:11:15.519Z,9.10
2023-04-14T21:15:29.496Z,9.10
2023-04-14T21:16:32.888Z,9.09
2023-04-14T21:19:04.386Z,9.09
2023-04-14T21:21:39.686Z,9.10
2023-04-14T21:24:08.568Z,9.11
2023-04-14T21:26:36.915Z,9.13
2023-04-14T21:29:04.986Z,9.14
2023-04-14T21:31:33.545Z,9.15
2023-04-14T21:34:01.679Z,9.16
2023-04-14T21:36:30.616Z,9.17
2023-04-14T21:38:58.825Z,9.18
2023-04-14T21:41:27.361Z,9.15
2023-04-14T21:43:55.423Z,9.12
2023-04-14T21:46:23.541Z,9.08
2023-04-14T21:48:52.277Z,9.03
2023-04-14T21:51:20.993Z,8.98
2023-04-14T21:53:51.092Z,8.92
2023-04-14T21:56:19.248Z,8.84
2023-04-14T21:58:47.099Z,8.77
2023-04-14T22:01:15.158Z,8.71
2023-04-14T22:03:44.783Z,8.68
2023-04-14T22:06:13.605Z,8.66
2023-04-14T22:08:42.404Z,8.64
2023-04-14T22:11:11.010Z,8.64
2023-04-14T22:13:38.957Z,8.64
2023-04-14T22:16:11.343Z,8.64
2023-04-14T22:18:39.672Z,8.63
2023-04-14T22:21:10.746Z,8.64
2023-04-14T22:23:43.542Z,8.63
2023-04-14T22:26:13.324Z,8.62
2023-04-14T22:28:42.418Z,8.63
2023-04-14T22:31:10.686Z,8.63
2023-04-14T22:33:41.883Z,8.63
2023-04-14T22:36:10.387Z,8.62
2023-04-14T22:38:38.264Z,8.62
2023-04-14T22:41:06.845Z,8.62
2023-04-14T22:43:34.720Z,8.62
2023-04-14T22:46:02.641Z,8.62
2023-04-14T22:48:31.175Z,8.61
2023-04-14T22:50:59.235Z,8.60
2023-04-14T22:53:28.139Z,8.58
2023-04-14T22:55:58.148Z,8.57
2023-04-14T22:58:26.230Z,8.56
2023-04-14T23:00:54.484Z,8.53
2023-04-14T23:03:23.367Z,8.50
2023-04-14T23:05:51.864Z,8.45
2023-04-14T23:08:21.386Z,8.42
2023-04-14T23:10:50.232Z,8.41
2023-04-14T23:13:18.225Z,8.40
2023-04-14T23:15:48.335Z,8.41
2023-04-14T23:18:20.878Z,8.41
2023-04-14T23:20:48.901Z,8.40
2023-04-14T23:23:17.175Z,8.40
2023-04-14T23:25:49.852Z,8.37
2023-04-14T23:28:17.688Z,8.33
2023-04-14T23:30:45.722Z,8.30
2023-04-14T23:33:14.815Z,8.26
2023-04-14T23:35:42.687Z,8.20
2023-04-14T23:38:11.213Z,8.15
2023-04-14T23:40:39.228Z,8.12
2023-04-14T23:43:08.950Z,8.08
2023-04-14T23:45:37.734Z,8.05
2023-04-14T23:48:06.663Z,8.03
2023-04-14T23:50:59.854Z,8.01
2023-04-14T23:53:25.335Z,7.97
2023-04-14T23:55:54.852Z,7.95
2023-04-14T23:58:26.904Z,7.94
